Woolpit, United Kingdom
Current Conditions -  °F | °C
As of 4:55 PM on Thursday 23 Oct 2014 (Local Time) from EGUW Reporting Station
Broken Clouds Broken Clouds  
Wind Chill: 59°   Ceiling: 3500
Heat Index: 59°   Visibility: 6mi
Dew Point: 52°   Wind: 13mph
Humidity: 77%   Direction: 210°SSW
Pressure: 30.03"   Gusts: NA
Location:  52.22°N, 0.89°E
Report Text: EGUW 231555Z 21011KT 9999 SCT024 BKN035 15/11 Q1017 WHT NOSIG
Loading
Personal Weather Stations






























Interactive Weather Map
Tropical Storm Tracking
New forecast layout! Learn more

10-Day Weather Forecast

Advertisements
Track Severe Weather on mobile